Time;durP1;ratioP1;P1;durP2;ratioP2;P2;SDS_P1;SDS_P2;PMS_P1;PMS_P2;Temp;Humidity;BMP_temperature;BMP_pressure;BME280_temperature;BME280_humidity;BME280_pressure;Samples;Min_cycle;Max_cycle;Signal;HPM_P1;HPM_P2
2024/01/07 00:01:48;;;;;;;14.70;9.70;;;;;;;;;;4976427;28;20402;-83
2024/01/07 00:04:15;;;;;;;13.90;9.23;;;;;;;;;;4975419;28;20405;-84
2024/01/07 00:06:41;;;;;;;15.13;10.35;;;;;;;;;;5033422;28;22034;-84
2024/01/07 00:09:07;;;;;;;15.05;10.25;;;;;;;;;;5015769;28;20432;-84
2024/01/07 00:11:40;;;;;;;14.52;10.32;;;;;;;;;;5033594;28;20401;-84
2024/01/07 00:14:06;;;;;;;15.80;10.07;;;;;;;;;;5015259;28;20463;-84
2024/01/07 00:16:35;;;;;;;14.67;9.30;;;;;;;;;;5045435;28;20804;-84
2024/01/07 00:19:01;;;;;;;15.98;9.90;;;;;;;;;;5013396;28;20534;-83
2024/01/07 00:21:29;;;;;;;15.98;10.25;;;;;;;;;;5036634;28;20416;-83
2024/01/07 00:23:57;;;;;;;17.30;11.05;;;;;;;;;;5044380;28;20411;-82
2024/01/07 00:26:24;;;;;;;17.25;10.68;;;;;;;;;;5035605;28;20458;-83
2024/01/07 00:28:51;;;;;;;16.10;10.98;;;;;;;;;;5052620;28;20750;-82
2024/01/07 00:31:17;;;;;;;16.52;10.75;;;;;;;;;;5050359;28;20419;-82
2024/01/07 00:33:43;;;;;;;19.00;12.32;;;;;;;;;;5074062;28;20419;-83
2024/01/07 00:36:10;;;;;;;18.60;11.63;;;;;;;;;;5039521;28;20956;-82
2024/01/07 00:38:36;;;;;;;18.92;11.93;;;;;;;;;;5052683;28;20397;-83
2024/01/07 00:41:02;;;;;;;19.38;12.00;;;;;;;;;;5036203;28;20484;-83
2024/01/07 00:43:28;;;;;;;19.83;11.63;;;;;;;;;;5018260;28;20846;-83
2024/01/07 00:45:54;;;;;;;18.88;11.00;;;;;;;;;;5022861;28;20463;-83
2024/01/07 00:48:20;;;;;;;18.17;11.33;;;;;;;;;;5018780;28;20491;-83
2024/01/07 00:50:52;;;;;;;19.70;11.48;;;;;;;;;;5016023;28;20403;-82
2024/01/07 00:53:37;;;;;;;16.70;10.80;;;;;;;;;;5050989;28;20438;-83
2024/01/07 00:56:04;;;;;;;17.05;10.43;;;;;;;;;;5032533;28;20461;-83
2024/01/07 00:58:30;;;;;;;16.63;10.45;;;;;;;;;;5013317;28;20411;-83
2024/01/07 01:01:01;;;;;;;16.60;10.52;;;;;;;;;;5022331;28;20423;-83
2024/01/07 01:03:32;;;;;;;16.42;10.25;;;;;;;;;;5018586;28;20411;-84
2024/01/07 01:05:58;;;;;;;15.40;9.80;;;;;;;;;;5019293;28;20764;-83
2024/01/07 01:08:25;;;;;;;18.70;10.68;;;;;;;;;;5052950;28;20388;-83
2024/01/07 01:10:51;;;;;;;16.52;9.80;;;;;;;;;;5035848;28;20398;-84
2024/01/07 01:13:17;;;;;;;13.13;9.23;;;;;;;;;;5038142;28;20504;-84
2024/01/07 01:15:43;;;;;;;15.88;9.63;;;;;;;;;;5034866;28;20410;-84
2024/01/07 01:18:09;;;;;;;15.43;10.03;;;;;;;;;;5024991;28;20423;-84
2024/01/07 01:20:35;;;;;;;14.18;8.77;;;;;;;;;;5018251;28;20493;-83
2024/01/07 01:23:02;;;;;;;16.45;9.35;;;;;;;;;;5034577;28;20401;-83
2024/01/07 01:25:29;;;;;;;14.82;10.02;;;;;;;;;;5035003;28;20402;-83
2024/01/07 01:27:56;;;;;;;16.77;10.02;;;;;;;;;;5052245;28;20397;-83
2024/01/07 01:30:22;;;;;;;16.10;9.90;;;;;;;;;;5035576;28;20397;-83
2024/01/07 01:32:48;;;;;;;15.90;9.57;;;;;;;;;;5041062;28;20414;-83
2024/01/07 01:35:14;;;;;;;16.30;9.65;;;;;;;;;;5034276;28;20425;-83
2024/01/07 01:37:41;;;;;;;15.23;9.82;;;;;;;;;;5020913;28;20459;-84
2024/01/07 01:40:07;;;;;;;14.85;9.23;;;;;;;;;;5022706;28;20508;-83
2024/01/07 01:42:33;;;;;;;15.05;9.38;;;;;;;;;;5018794;28;20436;-84
2024/01/07 01:45:01;;;;;;;14.02;9.50;;;;;;;;;;5031484;28;20769;-83
2024/01/07 01:47:28;;;;;;;14.70;9.15;;;;;;;;;;5003427;28;20893;-84
2024/01/07 01:49:54;;;;;;;13.48;8.57;;;;;;;;;;5029836;28;20410;-83
2024/01/07 01:52:20;;;;;;;12.68;8.15;;;;;;;;;;5003228;28;20405;-83
2024/01/07 01:54:46;;;;;;;13.25;8.38;;;;;;;;;;5034747;28;20425;-83
2024/01/07 01:57:16;;;;;;;13.77;8.63;;;;;;;;;;5033857;28;20409;-83
2024/01/07 01:59:43;;;;;;;12.73;8.27;;;;;;;;;;5018229;28;20441;-83
2024/01/07 02:02:09;;;;;;;13.73;8.40;;;;;;;;;;5017250;28;20458;-83
2024/01/07 02:04:35;;;;;;;13.10;8.57;;;;;;;;;;5033760;28;20433;-84
2024/01/07 02:07:02;;;;;;;13.35;7.80;;;;;;;;;;5033908;28;20417;-84
2024/01/07 02:09:28;;;;;;;12.13;8.18;;;;;;;;;;5017064;28;20397;-84
2024/01/07 02:12:04;;;;;;;13.23;8.45;;;;;;;;;;5034398;28;20410;-83
2024/01/07 02:14:30;;;;;;;11.33;7.73;;;;;;;;;;5017059;28;20860;-83
2024/01/07 02:16:56;;;;;;;12.90;8.38;;;;;;;;;;5032731;28;20401;-83
2024/01/07 02:19:23;;;;;;;13.77;8.20;;;;;;;;;;5004514;28;20407;-83
2024/01/07 02:21:52;;;;;;;15.15;7.68;;;;;;;;;;5021802;28;20417;-83
2024/01/07 02:24:18;;;;;;;12.43;7.70;;;;;;;;;;5017422;28;20408;-82
2024/01/07 02:26:44;;;;;;;13.98;7.90;;;;;;;;;;5017182;28;20402;-82
2024/01/07 02:29:10;;;;;;;12.40;7.53;;;;;;;;;;5050724;28;20777;-83
2024/01/07 02:31:36;;;;;;;13.15;7.85;;;;;;;;;;5040558;28;20403;-83
2024/01/07 02:34:03;;;;;;;10.43;7.10;;;;;;;;;;5029804;28;20423;-83
2024/01/07 02:36:29;;;;;;;12.25;7.32;;;;;;;;;;5034145;28;20502;-83
2024/01/07 02:38:55;;;;;;;11.23;7.07;;;;;;;;;;5019591;28;20425;-83
2024/01/07 02:41:25;;;;;;;11.57;6.97;;;;;;;;;;5017015;28;20401;-83
2024/01/07 02:43:51;;;;;;;12.50;6.95;;;;;;;;;;5028537;28;20486;-83
2024/01/07 02:46:17;;;;;;;11.13;6.85;;;;;;;;;;5008446;28;20465;-83
2024/01/07 02:48:43;;;;;;;11.35;7.32;;;;;;;;;;5034363;28;20413;-83
2024/01/07 02:51:09;;;;;;;10.73;7.57;;;;;;;;;;5006548;28;20399;-83
2024/01/07 02:53:35;;;;;;;11.05;6.32;;;;;;;;;;5024772;28;20464;-83
2024/01/07 02:56:01;;;;;;;11.13;6.72;;;;;;;;;;5026089;28;20801;-83
2024/01/07 02:58:28;;;;;;;13.20;7.05;;;;;;;;;;5030507;28;20470;-83
2024/01/07 03:00:54;;;;;;;11.27;6.90;;;;;;;;;;5016363;28;20447;-83
2024/01/07 03:03:20;;;;;;;10.98;7.13;;;;;;;;;;5029621;28;20399;-83
2024/01/07 03:05:46;;;;;;;11.80;6.10;;;;;;;;;;5033282;28;20408;-83
2024/01/07 03:08:12;;;;;;;10.73;6.45;;;;;;;;;;5032988;28;20476;-83
2024/01/07 03:10:38;;;;;;;10.18;6.18;;;;;;;;;;5007981;28;20429;-83
2024/01/07 03:13:05;;;;;;;11.03;6.50;;;;;;;;;;5032619;28;20402;-83
2024/01/07 03:15:31;;;;;;;10.82;6.25;;;;;;;;;;5033324;28;20457;-83
2024/01/07 03:17:58;;;;;;;9.98;6.43;;;;;;;;;;5035264;28;20885;-83
2024/01/07 03:20:24;;;;;;;10.10;5.80;;;;;;;;;;5034182;28;20430;-83
2024/01/07 03:22:50;;;;;;;13.88;6.07;;;;;;;;;;5034762;28;20961;-81
2024/01/07 03:25:16;;;;;;;10.27;6.03;;;;;;;;;;5015220;28;20403;-82
2024/01/07 03:27:42;;;;;;;9.75;5.55;;;;;;;;;;5033904;28;20494;-83
2024/01/07 03:30:09;;;;;;;8.77;5.32;;;;;;;;;;5020520;28;20409;-82
2024/01/07 03:32:35;;;;;;;7.50;4.57;;;;;;;;;;5028846;28;20409;-81
2024/01/07 03:35:02;;;;;;;10.15;5.43;;;;;;;;;;5033091;28;20431;-82
2024/01/07 03:37:28;;;;;;;8.07;4.93;;;;;;;;;;5045963;28;20767;-82
2024/01/07 03:39:54;;;;;;;8.30;4.85;;;;;;;;;;5049941;28;20397;-83
2024/01/07 03:42:21;;;;;;;7.55;4.78;;;;;;;;;;5024536;28;20402;-82
2024/01/07 03:44:47;;;;;;;9.00;5.18;;;;;;;;;;5036642;28;20443;-82
2024/01/07 03:47:13;;;;;;;7.88;4.70;;;;;;;;;;5035862;28;20461;-82
2024/01/07 03:49:39;;;;;;;8.07;4.60;;;;;;;;;;5016134;28;20430;-82
2024/01/07 03:52:08;;;;;;;7.45;4.50;;;;;;;;;;5038132;28;20474;-82
2024/01/07 03:54:35;;;;;;;7.90;4.70;;;;;;;;;;5046984;28;20818;-83
2024/01/07 03:57:01;;;;;;;9.57;5.05;;;;;;;;;;5017144;28;20403;-83
2024/01/07 03:59:28;;;;;;;6.90;4.20;;;;;;;;;;5002560;28;20426;-82
2024/01/07 04:01:54;;;;;;;7.97;4.30;;;;;;;;;;5021447;28;20955;-83
2024/01/07 04:04:20;;;;;;;7.43;4.57;;;;;;;;;;5020260;28;20405;-82
2024/01/07 04:06:46;;;;;;;8.17;4.47;;;;;;;;;;5048238;28;20506;-82
2024/01/07 04:09:12;;;;;;;8.55;4.82;;;;;;;;;;5056968;28;20880;-82
2024/01/07 04:11:45;;;;;;;8.45;4.70;;;;;;;;;;5032689;28;20729;-83
2024/01/07 04:14:11;;;;;;;9.35;4.68;;;;;;;;;;5000094;28;20437;-83
2024/01/07 04:16:37;;;;;;;8.02;4.57;;;;;;;;;;5010587;28;20568;-84
2024/01/07 04:19:03;;;;;;;7.82;4.65;;;;;;;;;;5005959;28;20429;-83
2024/01/07 04:21:29;;;;;;;8.00;4.50;;;;;;;;;;5018276;28;20425;-84
2024/01/07 04:23:55;;;;;;;8.13;4.70;;;;;;;;;;5016155;28;20889;-83
2024/01/07 04:26:21;;;;;;;7.40;4.50;;;;;;;;;;5019297;28;20909;-84
2024/01/07 04:28:47;;;;;;;8.07;4.47;;;;;;;;;;5018732;28;20412;-83
2024/01/07 04:31:13;;;;;;;7.93;4.00;;;;;;;;;;5015741;28;20417;-84
2024/01/07 04:33:39;;;;;;;7.20;4.07;;;;;;;;;;5008222;28;20519;-83
2024/01/07 04:36:06;;;;;;;7.00;4.00;;;;;;;;;;5016737;28;20409;-83
2024/01/07 04:38:32;;;;;;;6.40;3.70;;;;;;;;;;5035206;28;20413;-83
2024/01/07 04:40:58;;;;;;;6.32;3.60;;;;;;;;;;5042414;28;20397;-83
2024/01/07 04:43:24;;;;;;;5.82;3.58;;;;;;;;;;5005924;28;20439;-83
2024/01/07 04:45:50;;;;;;;6.68;3.38;;;;;;;;;;5041651;28;20972;-83
2024/01/07 04:48:16;;;;;;;6.82;3.67;;;;;;;;;;5020759;28;20406;-81
2024/01/07 04:50:42;;;;;;;5.35;3.20;;;;;;;;;;5034542;28;20401;-82
2024/01/07 04:53:08;;;;;;;5.65;3.40;;;;;;;;;;5017448;28;20425;-82
2024/01/07 04:55:35;;;;;;;5.53;3.33;;;;;;;;;;5007982;28;20405;-82
2024/01/07 04:58:01;;;;;;;5.63;3.17;;;;;;;;;;5031987;28;20418;-80
2024/01/07 05:00:27;;;;;;;7.35;3.70;;;;;;;;;;5002288;28;20439;-80
2024/01/07 05:02:53;;;;;;;6.45;3.20;;;;;;;;;;5018983;28;20484;-81
2024/01/07 05:05:22;;;;;;;5.10;3.10;;;;;;;;;;5017469;28;20409;-80
2024/01/07 05:07:48;;;;;;;5.63;3.08;;;;;;;;;;5018551;28;20488;-80
2024/01/07 05:10:14;;;;;;;6.85;3.28;;;;;;;;;;5024312;28;20405;-80
2024/01/07 05:12:40;;;;;;;6.10;3.10;;;;;;;;;;5025069;28;20952;-80
2024/01/07 05:15:06;;;;;;;5.40;2.97;;;;;;;;;;5015472;28;20425;-80
2024/01/07 05:17:32;;;;;;;5.90;2.92;;;;;;;;;;5031013;28;20416;-80
2024/01/07 05:19:58;;;;;;;4.78;2.92;;;;;;;;;;5005928;28;20415;-80
2024/01/07 05:22:25;;;;;;;4.70;2.75;;;;;;;;;;5015692;28;20410;-80
2024/01/07 05:24:51;;;;;;;5.35;2.92;;;;;;;;;;5018723;28;20495;-80
2024/01/07 05:27:17;;;;;;;6.15;3.10;;;;;;;;;;5022591;28;20412;-82
2024/01/07 05:29:49;;;;;;;6.53;2.80;;;;;;;;;;5045952;28;20443;-82
2024/01/07 05:32:15;;;;;;;5.28;2.50;;;;;;;;;;5035566;28;20456;-81
2024/01/07 05:34:43;;;;;;;5.40;2.70;;;;;;;;;;5033408;28;20504;-78
2024/01/07 05:37:09;;;;;;;5.60;2.50;;;;;;;;;;5030966;28;20966;-79
2024/01/07 05:39:35;;;;;;;5.00;2.33;;;;;;;;;;5028620;28;20791;-81
2024/01/07 05:42:02;;;;;;;4.43;2.53;;;;;;;;;;5017882;28;20745;-81
2024/01/07 05:44:28;;;;;;;4.32;2.45;;;;;;;;;;5034166;28;20475;-82
2024/01/07 05:46:54;;;;;;;5.35;2.35;;;;;;;;;;5033774;28;20424;-82
2024/01/07 05:49:20;;;;;;;4.80;2.40;;;;;;;;;;5004240;28;20476;-79
2024/01/07 05:51:46;;;;;;;4.70;2.30;;;;;;;;;;5034157;28;20409;-79
2024/01/07 05:54:12;;;;;;;5.65;2.33;;;;;;;;;;5016475;28;20455;-79
2024/01/07 05:56:41;;;;;;;5.32;2.45;;;;;;;;;;5041577;28;20468;-79
2024/01/07 05:59:08;;;;;;;4.25;2.25;;;;;;;;;;5033764;28;20482;-79
2024/01/07 06:01:35;;;;;;;5.05;2.25;;;;;;;;;;5017776;28;20456;-81
2024/01/07 06:04:01;;;;;;;10.05;2.53;;;;;;;;;;5033643;28;20776;-81
2024/01/07 06:06:29;;;;;;;6.10;3.10;;;;;;;;;;5057260;28;20494;-79
2024/01/07 06:08:55;;;;;;;4.65;2.10;;;;;;;;;;5037827;28;20406;-78
2024/01/07 06:11:22;;;;;;;3.95;2.30;;;;;;;;;;5035415;28;20459;-79
2024/01/07 06:13:48;;;;;;;3.67;1.92;;;;;;;;;;5017471;28;20419;-79
2024/01/07 06:16:14;;;;;;;4.40;2.03;;;;;;;;;;5003559;28;20410;-79
2024/01/07 06:18:40;;;;;;;4.07;2.20;;;;;;;;;;5043395;28;20396;-78
2024/01/07 06:21:06;;;;;;;5.45;2.10;;;;;;;;;;5033259;28;20509;-82
2024/01/07 06:23:33;;;;;;;4.57;2.00;;;;;;;;;;5013151;28;20429;-82
2024/01/07 06:25:59;;;;;;;5.00;2.20;;;;;;;;;;5016137;28;20433;-83
2024/01/07 06:28:25;;;;;;;4.88;2.47;;;;;;;;;;5033204;28;20450;-83
2024/01/07 06:30:51;;;;;;;6.43;3.63;;;;;;;;;;5046552;28;20411;-83
2024/01/07 06:33:17;;;;;;;7.07;3.80;;;;;;;;;;5029919;28;20412;-82
2024/01/07 06:35:45;;;;;;;7.80;3.97;;;;;;;;;;5029796;28;20529;-83
2024/01/07 06:38:11;;;;;;;4.55;2.85;;;;;;;;;;5033253;28;20412;-83
2024/01/07 06:40:37;;;;;;;5.97;2.85;;;;;;;;;;5026297;28;20859;-82
2024/01/07 06:43:03;;;;;;;7.28;4.25;;;;;;;;;;5032570;28;20422;-82
2024/01/07 06:45:29;;;;;;;5.53;3.55;;;;;;;;;;5033514;28;20412;-83
2024/01/07 06:47:55;;;;;;;3.92;2.50;;;;;;;;;;5041776;28;20465;-83
2024/01/07 06:50:21;;;;;;;4.20;2.30;;;;;;;;;;5037362;28;20401;-82
2024/01/07 06:52:47;;;;;;;4.28;2.10;;;;;;;;;;5020084;28;20410;-83
2024/01/07 06:55:13;;;;;;;4.45;2.60;;;;;;;;;;5012921;28;20453;-83
2024/01/07 06:57:39;;;;;;;4.72;2.60;;;;;;;;;;5029036;28;20431;-83
2024/01/07 07:00:06;;;;;;;4.88;2.10;;;;;;;;;;5047102;28;20417;-82
2024/01/07 07:02:32;;;;;;;4.95;2.42;;;;;;;;;;5008520;28;20403;-83
2024/01/07 07:04:58;;;;;;;4.45;2.33;;;;;;;;;;5030326;28;20754;-79
2024/01/07 07:07:24;;;;;;;5.75;2.58;;;;;;;;;;5013552;28;20798;-79
2024/01/07 07:09:51;;;;;;;6.27;2.50;;;;;;;;;;5028849;28;20419;-79
2024/01/07 07:12:18;;;;;;;4.93;2.50;;;;;;;;;;5009385;28;20471;-79
2024/01/07 07:14:44;;;;;;;5.10;2.40;;;;;;;;;;4997148;28;20477;-81
2024/01/07 07:17:10;;;;;;;4.07;1.80;;;;;;;;;;5032495;28;20413;-80
2024/01/07 07:19:36;;;;;;;3.92;2.10;;;;;;;;;;5016819;28;20404;-80
2024/01/07 07:22:02;;;;;;;3.63;2.10;;;;;;;;;;5017217;28;20800;-79
2024/01/07 07:24:28;;;;;;;10.95;2.20;;;;;;;;;;5012963;28;20426;-78
2024/01/07 07:26:54;;;;;;;3.55;1.80;;;;;;;;;;5034650;28;20432;-80
2024/01/07 07:29:20;;;;;;;5.15;2.15;;;;;;;;;;5060503;28;20421;-79
2024/01/07 07:31:46;;;;;;;4.67;2.20;;;;;;;;;;5024933;28;20411;-80
2024/01/07 07:34:12;;;;;;;3.80;2.05;;;;;;;;;;5037318;28;20455;-80
2024/01/07 07:36:40;;;;;;;3.72;2.10;;;;;;;;;;5044208;28;20437;-79
2024/01/07 07:39:06;;;;;;;3.55;1.70;;;;;;;;;;5021133;28;20456;-79
2024/01/07 07:41:33;;;;;;;3.45;1.80;;;;;;;;;;5034623;28;20427;-80
2024/01/07 07:43:59;;;;;;;3.63;1.77;;;;;;;;;;5033533;28;20405;-82
2024/01/07 07:46:25;;;;;;;4.85;2.00;;;;;;;;;;5014228;28;20417;-80
2024/01/07 07:48:51;;;;;;;3.87;1.80;;;;;;;;;;5016131;28;20426;-85
2024/01/07 07:51:17;;;;;;;3.33;2.03;;;;;;;;;;5016622;28;20489;-85
2024/01/07 07:53:43;;;;;;;4.25;1.98;;;;;;;;;;5039082;28;20452;-84
2024/01/07 07:56:09;;;;;;;4.55;2.08;;;;;;;;;;5018006;28;20500;-84
2024/01/07 07:58:35;;;;;;;4.65;1.90;;;;;;;;;;5037825;28;20947;-85
2024/01/07 08:01:01;;;;;;;4.60;1.90;;;;;;;;;;5018282;28;20409;-84
2024/01/07 08:03:28;;;;;;;3.47;1.70;;;;;;;;;;5044131;28;20405;-85
2024/01/07 08:05:54;;;;;;;4.07;1.80;;;;;;;;;;5020014;28;20421;-86
2024/01/07 08:08:20;;;;;;;4.20;1.88;;;;;;;;;;5034686;28;20407;-85
2024/01/07 08:10:46;;;;;;;3.47;1.90;;;;;;;;;;5018378;28;20903;-86
2024/01/07 08:13:12;;;;;;;4.15;1.67;;;;;;;;;;5043232;28;20408;-86
2024/01/07 08:15:38;;;;;;;3.00;1.70;;;;;;;;;;5021299;28;20410;-87
2024/01/07 08:18:05;;;;;;;3.58;2.08;;;;;;;;;;5019834;28;20402;-86
2024/01/07 08:20:31;;;;;;;3.63;1.85;;;;;;;;;;5019263;28;20405;-86
2024/01/07 08:22:57;;;;;;;3.42;2.05;;;;;;;;;;5035058;28;20417;-86
2024/01/07 08:25:23;;;;;;;3.33;1.70;;;;;;;;;;5010396;28;20438;-85
2024/01/07 08:27:50;;;;;;;4.28;1.70;;;;;;;;;;5023311;28;20515;-85
2024/01/07 08:30:19;;;;;;;4.85;2.00;;;;;;;;;;5033448;28;20416;-84
2024/01/07 08:32:47;;;;;;;4.43;2.10;;;;;;;;;;4996343;28;20413;-85
2024/01/07 08:35:13;;;;;;;4.22;2.05;;;;;;;;;;5025848;28;20423;-84
2024/01/07 08:37:39;;;;;;;4.55;2.17;;;;;;;;;;5024097;28;20398;-85
2024/01/07 08:40:09;;;;;;;6.60;2.88;;;;;;;;;;5042883;28;20448;-84
2024/01/07 08:42:35;;;;;;;17.25;7.07;;;;;;;;;;5027387;28;20405;-84
2024/01/07 08:45:04;;;;;;;5.68;3.05;;;;;;;;;;5006941;28;20432;-84
2024/01/07 08:47:31;;;;;;;4.22;2.80;;;;;;;;;;5015951;28;20411;-85
2024/01/07 08:49:57;;;;;;;5.20;3.30;;;;;;;;;;5016102;28;20911;-85
2024/01/07 08:52:24;;;;;;;4.93;3.05;;;;;;;;;;5072865;28;20404;-85
2024/01/07 08:54:50;;;;;;;4.15;2.50;;;;;;;;;;5023505;28;20460;-84
2024/01/07 08:57:16;;;;;;;4.85;2.30;;;;;;;;;;5018160;28;20421;-84
2024/01/07 08:59:42;;;;;;;4.25;2.63;;;;;;;;;;5053285;28;20535;-83
2024/01/07 09:02:09;;;;;;;4.70;2.30;;;;;;;;;;5031630;28;20403;-84
2024/01/07 09:04:35;;;;;;;5.55;2.10;;;;;;;;;;5028740;28;20398;-84
2024/01/07 09:07:02;;;;;;;4.67;2.17;;;;;;;;;;5021570;28;20415;-84
2024/01/07 09:09:28;;;;;;;4.60;2.33;;;;;;;;;;5017636;28;20412;-84
2024/01/07 09:11:56;;;;;;;3.45;1.92;;;;;;;;;;5014706;28;20423;-84
2024/01/07 09:14:27;;;;;;;4.47;1.90;;;;;;;;;;5037162;28;20427;-84
2024/01/07 09:16:53;;;;;;;4.80;2.22;;;;;;;;;;5028778;28;20413;-85
2024/01/07 09:19:22;;;;;;;3.72;1.90;;;;;;;;;;5015669;28;20757;-83
2024/01/07 09:21:52;;;;;;;6.05;2.35;;;;;;;;;;5038242;28;20405;-83
2024/01/07 09:24:21;;;;;;;5.13;2.20;;;;;;;;;;5025909;28;20403;-83
2024/01/07 09:26:51;;;;;;;4.40;2.33;;;;;;;;;;5033000;28;20512;-83
2024/01/07 09:29:17;;;;;;;5.40;2.40;;;;;;;;;;5039789;28;20417;-84
2024/01/07 09:31:50;;;;;;;4.70;2.35;;;;;;;;;;5019083;28;20405;-85
2024/01/07 09:34:16;;;;;;;5.07;2.38;;;;;;;;;;5015745;28;20923;-84
2024/01/07 09:36:45;;;;;;;4.95;2.03;;;;;;;;;;5018913;28;20402;-83
2024/01/07 09:39:11;;;;;;;4.75;1.98;;;;;;;;;;5020152;28;20429;-85
2024/01/07 09:41:38;;;;;;;3.75;2.10;;;;;;;;;;5019101;28;20398;-84
2024/01/07 09:44:05;;;;;;;4.18;2.15;;;;;;;;;;5024322;28;20436;-85
2024/01/07 09:46:35;;;;;;;4.18;2.30;;;;;;;;;;5031482;28;20466;-85
2024/01/07 09:49:01;;;;;;;3.25;1.95;;;;;;;;;;5018895;28;20401;-84
2024/01/07 09:51:32;;;;;;;4.68;2.20;;;;;;;;;;5036674;28;20527;-84
2024/01/07 09:54:04;;;;;;;4.55;2.00;;;;;;;;;;5038172;28;20427;-84
2024/01/07 09:56:35;;;;;;;4.45;2.05;;;;;;;;;;5006274;28;20895;-84
2024/01/07 09:59:06;;;;;;;4.60;1.92;;;;;;;;;;5036930;28;20483;-85
2024/01/07 10:01:33;;;;;;;4.72;2.10;;;;;;;;;;5021952;28;20466;-84
2024/01/07 10:03:59;;;;;;;3.53;1.93;;;;;;;;;;5024914;28;20465;-85
2024/01/07 10:06:26;;;;;;;4.50;1.80;;;;;;;;;;5037088;28;20415;-85
2024/01/07 10:08:52;;;;;;;4.18;2.00;;;;;;;;;;5023894;28;20428;-85
2024/01/07 10:11:23;;;;;;;4.07;1.90;;;;;;;;;;5018314;28;20425;-84
2024/01/07 10:13:51;;;;;;;3.80;1.70;;;;;;;;;;5032216;28;20425;-85
2024/01/07 10:16:17;;;;;;;4.88;1.80;;;;;;;;;;5018868;28;20433;-85
2024/01/07 10:18:43;;;;;;;2.90;1.80;;;;;;;;;;5013589;28;20481;-85
2024/01/07 10:21:12;;;;;;;3.28;1.63;;;;;;;;;;5029964;28;20438;-85
2024/01/07 10:23:41;;;;;;;4.88;1.90;;;;;;;;;;5045459;28;20911;-86
2024/01/07 10:26:12;;;;;;;5.00;2.17;;;;;;;;;;5015957;28;20425;-83
2024/01/07 10:28:40;;;;;;;3.85;2.10;;;;;;;;;;5015875;28;20504;-83
2024/01/07 10:31:09;;;;;;;3.67;1.90;;;;;;;;;;5031782;28;20413;-83
2024/01/07 10:33:42;;;;;;;4.03;2.08;;;;;;;;;;5030285;28;20405;-82
2024/01/07 10:36:10;;;;;;;4.40;2.45;;;;;;;;;;5010197;28;20456;-83
2024/01/07 10:38:40;;;;;;;7.22;4.25;;;;;;;;;;5005420;28;20407;-82
2024/01/07 10:41:10;;;;;;;3.80;2.40;;;;;;;;;;5031468;28;20506;-83
2024/01/07 10:43:40;;;;;;;4.82;2.45;;;;;;;;;;5010068;28;20450;-82
2024/01/07 10:46:14;;;;;;;7.03;3.45;;;;;;;;;;5045072;28;20423;-82
2024/01/07 10:48:48;;;;;;;7.18;3.75;;;;;;;;;;5023019;28;20403;-82
2024/01/07 10:51:18;;;;;;;5.80;2.80;;;;;;;;;;5042271;28;20836;-83
2024/01/07 10:53:53;;;;;;;4.95;2.80;;;;;;;;;;5043110;28;20435;-84
2024/01/07 10:56:25;;;;;;;5.15;2.45;;;;;;;;;;5030171;28;20430;-83
2024/01/07 10:58:56;;;;;;;5.75;3.28;;;;;;;;;;5033106;28;20964;-83
2024/01/07 11:01:42;;;;;;;4.20;2.58;;;;;;;;;;5006955;28;20901;-83
2024/01/07 11:04:15;;;;;;;5.25;2.70;;;;;;;;;;5012219;28;20412;-84
2024/01/07 11:07:00;;;;;;;8.45;2.90;;;;;;;;;;5040949;28;20436;-84
2024/01/07 11:09:35;;;;;;;6.80;3.22;;;;;;;;;;5016644;28;20405;-82
2024/01/07 11:12:04;;;;;;;5.22;2.95;;;;;;;;;;5019231;28;20972;-83
2024/01/07 11:14:36;;;;;;;5.80;2.95;;;;;;;;;;5022057;28;20437;-84
2024/01/07 11:17:03;;;;;;;4.45;2.95;;;;;;;;;;5033846;28;20417;-85
2024/01/07 11:19:29;;;;;;;5.90;3.80;;;;;;;;;;5015321;28;20437;-82
2024/01/07 11:22:20;;;;;;;9.00;3.97;;;1.10;99.90;;;;;;5022734;28;20488;-82
2024/01/07 11:24:46;;;;;;;4.57;2.57;;;;;;;;;;5052703;28;20467;-82
2024/01/07 11:27:12;;;;;;;5.07;2.47;;;;;;;;;;5022507;28;20450;-84
2024/01/07 11:29:38;;;;;;;5.35;2.60;;;;;;;;;;5053812;28;20403;-84
2024/01/07 11:32:06;;;;;;;5.25;2.70;;;;;;;;;;5029952;28;20413;-86
2024/01/07 11:34:40;;;;;;;5.00;2.40;;;;;;;;;;5034185;28;20453;-84
2024/01/07 11:37:11;;;;;;;6.07;2.67;;;;;;;;;;5039098;28;20481;-83
2024/01/07 11:39:45;;;;;;;5.28;2.67;;;;;;;;;;5033709;28;20450;-84
2024/01/07 11:42:14;;;;;;;8.48;2.92;;;;;;;;;;5000272;28;20437;-84
2024/01/07 11:44:48;;;;;;;4.95;2.63;;;;;;;;;;5052306;28;20397;-83
2024/01/07 11:47:18;;;;;;;4.75;2.53;;;;;;;;;;5057816;28;20915;-84
2024/01/07 11:49:44;;;;;;;5.57;2.95;;;;;;;;;;5027007;28;20405;-83
2024/01/07 11:52:10;;;;;;;5.88;2.80;;;;;;;;;;5017506;28;20401;-83
2024/01/07 11:54:38;;;;;;;4.75;2.80;;;;;;;;;;5038260;28;20727;-85
2024/01/07 11:57:10;;;;;;;7.72;3.30;;;;;;;;;;5018775;28;20428;-84
2024/01/07 11:59:40;;;;;;;6.15;3.30;;;;;;;;;;5025314;28;20407;-85
2024/01/07 12:02:06;;;;;;;4.85;2.53;;;;;;;;;;5054649;28;20754;-83
2024/01/07 12:04:33;;;;;;;5.78;3.10;;;;;;;;;;5022635;28;20397;-84
2024/01/07 12:06:59;;;;;;;6.35;3.15;;;;;;;;;;5017557;28;20409;-85
2024/01/07 12:09:28;;;;;;;4.75;2.72;;;;;;;;;;5018122;28;20719;-85
2024/01/07 12:12:00;;;;;;;4.27;2.47;;;;;;;;;;5033502;28;20409;-84
2024/01/07 12:14:27;;;;;;;4.82;2.80;;;;;;;;;;5026721;28;20425;-85
2024/01/07 12:16:53;;;;;;;6.82;3.50;;;;;;;;;;5027889;28;20469;-85
2024/01/07 12:19:20;;;;;;;6.18;2.83;;;;;;;;;;5021607;28;20401;-83
2024/01/07 12:21:47;;;;;;;4.53;2.37;;;;;;;;;;5037775;28;20413;-84
2024/01/07 12:24:13;;;;;;;5.65;2.60;;;;;;;;;;5044027;28;20751;-84
2024/01/07 12:26:40;;;;;;;4.97;2.65;;;;;;;;;;5030219;28;20484;-85
2024/01/07 12:29:07;;;;;;;6.30;2.88;;;;;;;;;;5020194;28;20413;-85
2024/01/07 12:31:34;;;;;;;7.00;2.80;;;;;;;;;;5037736;28;20417;-83
2024/01/07 12:34:02;;;;;;;5.47;3.13;;;;;;;;;;5025214;28;20429;-83
2024/01/07 12:36:31;;;;;;;5.55;3.28;;;;;;;;;;5017914;28;20402;-84
2024/01/07 12:38:57;;;;;;;5.50;2.85;;;;;;;;;;5027164;28;20982;-87
2024/01/07 12:41:24;;;;;;;6.53;3.40;;;;;;;;;;5026623;28;20407;-87
2024/01/07 12:43:50;;;;;;;6.38;3.05;;;;;;;;;;5020430;28;20749;-87
2024/01/07 12:46:17;;;;;;;6.95;3.50;;;;;;;;;;5034377;28;20398;-87
2024/01/07 12:48:45;;;;;;;6.43;3.00;;;;;;;;;;5017109;28;20407;-87
2024/01/07 12:51:11;;;;;;;6.17;2.93;;;;;;;;;;5022146;28;20411;-87
2024/01/07 12:53:38;;;;;;;5.60;3.22;;;;;;;;;;5042525;28;20409;-86
2024/01/07 12:56:04;;;;;;;6.72;3.55;;;;;;;;;;5046040;28;20897;-85
2024/01/07 12:58:30;;;;;;;7.50;3.33;;;;;;;;;;5035896;28;20420;-84
2024/01/07 13:00:59;;;;;;;6.95;3.40;;;;;;;;;;5024305;28;20401;-83
2024/01/07 13:03:31;;;;;;;6.40;3.40;;;;;;;;;;5021558;28;20431;-83
2024/01/07 13:06:01;;;;;;;8.05;4.00;;;;;;;;;;5035605;28;20428;-83
2024/01/07 13:08:33;;;;;;;7.20;3.97;;;;;;;;;;5053660;28;20889;-83
2024/01/07 13:11:02;;;;;;;8.27;4.20;;;;;;;;;;5052601;28;20981;-84
2024/01/07 13:13:30;;;;;;;8.02;3.70;;;;;;;;;;5054592;28;20454;-84
2024/01/07 13:15:57;;;;;;;5.55;3.30;;;;;;;;;;5037279;28;21334;-84
2024/01/07 13:18:23;;;;;;;6.38;3.20;;;;;;;;;;5044039;28;20407;-86
2024/01/07 13:20:51;;;;;;;6.60;3.55;;;;;;;;;;5021800;28;20876;-85
2024/01/07 13:23:18;;;;;;;6.55;3.45;;;;;;;;;;5034222;28;20980;-83
2024/01/07 13:25:44;;;;;;;7.05;3.78;;;;;;;;;;5025070;28;20409;-85
2024/01/07 13:28:16;;;;;;;6.70;3.85;;;;;;;;;;5023221;28;20445;-86
2024/01/07 13:30:45;;;;;;;7.45;3.85;;;;;;;;;;5031014;28;20408;-86
2024/01/07 13:33:17;;;;;;;5.88;4.10;;;;;;;;;;5019718;28;20846;-84
2024/01/07 13:35:44;;;;;;;7.75;3.88;;;;;;;;;;5015482;28;20984;-85
2024/01/07 13:38:10;;;;;;;9.93;4.10;;;;;;;;;;5012251;28;20885;-86
2024/01/07 13:40:36;;;;;;;7.40;4.13;;;;;;;;;;5026288;28;20460;-86
2024/01/07 13:43:06;;;;;;;6.05;3.70;;;;;;;;;;5039396;28;20407;-84
2024/01/07 13:45:32;;;;;;;8.80;4.00;;;;;;;;;;5050227;28;20413;-84
2024/01/07 13:48:07;;;;;;;7.35;3.90;;;;;;;;;;5018178;28;20420;-84
2024/01/07 13:50:38;;;;;;;6.63;4.05;;;;;;;;;;5020694;28;20417;-86
2024/01/07 13:56:19;;;;;;;8.10;4.50;;;;;;;;;;5049396;28;20437;-87
2024/01/07 13:58:46;;;;;;;6.80;4.22;;;;;;;;;;5034164;28;20421;-87
2024/01/07 14:01:13;;;;;;;9.63;3.85;;;;;;;;;;5016746;28;20416;-87
2024/01/07 14:04:08;;;;;;;7.72;3.88;;;;;;;;;;5031875;28;20904;-87
2024/01/07 14:06:34;;;;;;;7.63;3.60;;;;;;;;;;4998147;28;20430;-87
2024/01/07 14:09:08;;;;;;;7.38;3.95;;;;;;;;;;5032394;28;20763;-87
2024/01/07 14:12:15;;;;;;;8.05;3.90;;;;;;;;;;5036024;28;20407;-88
2024/01/07 14:15:02;;;;;;;9.82;4.70;;;;;;;;;;5024934;28;20441;-88
2024/01/07 14:17:32;;;;;;;8.38;4.05;;;;;;;;;;5006515;28;20423;-87
2024/01/07 14:20:27;;;;;;;9.77;4.20;;;;;;;;;;5031974;28;20449;-88
2024/01/07 14:23:14;;;;;;;7.33;4.30;;;;;;;;;;5015651;28;20896;-87
2024/01/07 14:25:44;;;;;;;11.48;5.60;;;;;;;;;;4995207;28;20524;-88
2024/01/07 14:28:10;;;;;;;8.20;4.70;;;;;;;;;;5012936;28;20408;-89
2024/01/07 14:30:58;;;;;;;7.97;4.95;;;;;;;;;;5016828;28;20469;-88
2024/01/07 14:33:37;;;;;;;8.65;4.50;;;;;;;;;;5046021;28;20422;-86
2024/01/07 14:36:16;;;;;;;8.63;5.38;;;;;;;;;;5038734;28;20398;-87
2024/01/07 14:38:49;;;;;;;10.77;4.90;;;;;;;;;;5030470;28;20454;-87
2024/01/07 14:41:15;;;;;;;8.75;4.95;;;;;;;;;;5031401;28;20403;-87
2024/01/07 14:43:50;;;;;;;7.33;4.63;;;;;;;;;;5031025;28;20414;-87
2024/01/07 14:49:34;;;;;;;8.95;5.05;;;;;;;;;;5011907;28;20434;-88